createdAt,value
2023-12-08T00:02:34.581Z,99.99
2023-12-08T00:17:31.617Z,99.99
2023-12-08T00:32:28.771Z,99.99
2023-12-08T00:47:26.180Z,99.99
2023-12-08T01:02:22.542Z,99.99
2023-12-08T01:17:19.561Z,99.99
2023-12-08T01:32:16.616Z,99.99
2023-12-08T01:47:13.591Z,99.99
2023-12-08T02:02:10.562Z,99.99
2023-12-08T02:17:07.581Z,99.99
2023-12-08T02:32:04.599Z,99.99
2023-12-08T02:47:01.600Z,99.99
2023-12-08T03:01:58.522Z,99.99
2023-12-08T03:16:55.464Z,99.99
2023-12-08T03:31:52.390Z,99.99
2023-12-08T03:46:49.351Z,99.99
2023-12-08T04:01:46.264Z,99.99
2023-12-08T04:16:43.265Z,99.99
2023-12-08T04:31:40.240Z,99.99
2023-12-08T04:46:37.287Z,99.99
2023-12-08T05:01:34.201Z,99.99
2023-12-08T05:16:31.249Z,99.99
2023-12-08T05:31:28.115Z,99.99
2023-12-08T05:46:25.149Z,99.99
2023-12-08T06:01:24.275Z,99.99
2023-12-08T06:16:19.244Z,98.46
2023-12-08T06:31:16.277Z,97.11
2023-12-08T06:46:13.288Z,96.69
2023-12-08T07:01:10.406Z,95.60
2023-12-08T07:16:07.226Z,95.42
2023-12-08T07:31:04.198Z,95.10
2023-12-08T07:46:01.929Z,95.18
2023-12-08T08:00:58.435Z,95.44
2023-12-08T08:15:55.340Z,94.78
2023-12-08T08:30:52.237Z,93.62
2023-12-08T08:45:49.241Z,92.57
2023-12-08T09:00:46.409Z,93.55
2023-12-08T09:15:43.334Z,91.66
2023-12-08T09:30:40.393Z,91.58
2023-12-08T09:45:37.387Z,89.79
2023-12-08T10:00:34.338Z,89.66
2023-12-08T10:15:31.324Z,88.98
2023-12-08T10:30:28.779Z,89.42
2023-12-08T10:45:25.502Z,89.40
2023-12-08T11:00:22.227Z,88.75
2023-12-08T11:15:19.255Z,88.53
2023-12-08T11:30:16.267Z,87.75
2023-12-08T11:45:14.089Z,88.30
2023-12-08T12:00:10.118Z,89.08
2023-12-08T12:15:07.152Z,88.24
2023-12-08T12:30:04.086Z,88.71
2023-12-08T12:48:02.520Z,88.48
2023-12-08T13:03:00.947Z,89.11
2023-12-08T13:17:56.151Z,89.32
2023-12-08T13:32:53.182Z,88.64
2023-12-08T13:47:50.230Z,88.61
2023-12-08T14:02:47.251Z,89.29
2023-12-08T14:17:44.134Z,89.45
2023-12-08T14:32:41.277Z,89.74
2023-12-08T14:47:38.002Z,90.58
2023-12-08T15:02:34.836Z,91.16
2023-12-08T15:17:31.830Z,90.87
2023-12-08T15:32:28.777Z,90.87
2023-12-08T15:47:26.212Z,90.76
2023-12-08T16:02:22.595Z,91.28
2023-12-08T16:17:19.552Z,91.44
2023-12-08T16:32:16.757Z,91.86
2023-12-08T16:47:13.537Z,91.58
2023-12-08T17:02:10.597Z,90.97
2023-12-08T17:17:07.503Z,92.57
2023-12-08T17:32:06.394Z,93.99
2023-12-08T17:47:01.533Z,94.65
2023-12-08T18:01:58.550Z,95.00
2023-12-08T18:16:56.964Z,95.05
2023-12-08T18:31:52.636Z,95.07
2023-12-08T18:46:49.620Z,95.28
2023-12-08T19:01:46.737Z,95.73
2023-12-08T19:16:43.634Z,96.08
2023-12-08T19:31:40.671Z,96.00
2023-12-08T19:46:37.639Z,96.05
2023-12-08T20:01:34.681Z,95.63
2023-12-08T20:16:31.697Z,95.50
2023-12-08T20:31:28.684Z,95.36
2023-12-08T20:46:25.700Z,94.73
2023-12-08T21:01:22.807Z,95.23
2023-12-08T21:16:19.793Z,95.00
2023-12-08T21:31:16.700Z,95.05
2023-12-08T21:46:13.728Z,94.70
2023-12-08T22:01:10.821Z,95.15
2023-12-08T22:16:07.765Z,95.10
2023-12-08T22:31:04.787Z,95.63
2023-12-08T22:46:01.792Z,96.47
2023-12-08T23:00:58.950Z,97.00
2023-12-08T23:15:55.788Z,97.42
2023-12-08T23:31:03.039Z,97.58
2023-12-08T23:45:49.854Z,98.00
